Time;durP1;ratioP1;P1;durP2;ratioP2;P2;SDS_P1;SDS_P2;PMS_P1;PMS_P2;Temp;Humidity;BMP_temperature;BMP_pressure;BME280_temperature;BME280_humidity;BME280_pressure;Samples;Min_cycle;Max_cycle;Signal;HPM_P1;HPM_P2
2023/12/21 00:02:36;;;;;;;;;;;;;;;7.77;96.35;97839.42;68033;1275;1016243;-76
2023/12/21 00:05:38;;;;;;;;;;;;;;;7.87;94.91;97835.60;68025;1275;1016758;-76
2023/12/21 00:08:41;;;;;;;;;;;;;;;7.73;96.00;97832.91;68013;1275;1016389;-75
2023/12/21 00:11:43;;;;;;;;;;;;;;;7.61;96.96;97833.11;68029;1275;1016237;-75
2023/12/21 00:14:46;;;;;;;;;;;;;;;7.54;97.75;97830.81;67994;1275;1016378;-76
2023/12/21 00:17:49;;;;;;;;;;;;;;;7.49;98.46;97827.79;68017;1275;1016451;-76
2023/12/21 00:20:51;;;;;;;;;;;;;;;7.48;98.60;97829.10;67954;1275;1017648;-76
2023/12/21 00:23:54;;;;;;;;;;;;;;;7.49;98.64;97822.80;68044;1275;1015966;-76
2023/12/21 00:26:56;;;;;;;;;;;;;;;7.36;99.82;97815.08;68034;1275;1016482;-76
2023/12/21 00:29:59;;;;;;;;;;;;;;;7.53;99.46;97818.18;68044;1275;1016153;-76
2023/12/21 00:33:02;;;;;;;;;;;;;;;7.71;98.19;97822.06;68017;1275;1016343;-76
2023/12/21 00:36:04;;;;;;;;;;;;;;;7.78;97.55;97814.12;68053;1274;1016474;-76
2023/12/21 00:39:08;;;;;;;;;;;;;;;7.65;99.22;97820.67;68049;1275;1016518;-75
2023/12/21 00:42:11;;;;;;;;;;;;;;;7.70;99.67;97817.77;68057;1275;1016239;-75
2023/12/21 00:45:13;;;;;;;;;;;;;;;7.72;99.42;97813.60;67984;1275;1016497;-76
2023/12/21 00:48:16;;;;;;;;;;;;;;;7.92;98.65;97810.05;67994;1275;1016785;-75
2023/12/21 00:51:18;;;;;;;;;;;;;;;7.96;98.28;97806.30;68017;1275;1016457;-75
2023/12/21 00:54:21;;;;;;;;;;;;;;;7.93;98.59;97812.42;68009;1275;1018124;-76
2023/12/21 00:57:24;;;;;;;;;;;;;;;7.94;98.62;97807.48;68020;1275;1016260;-76
2023/12/21 01:00:27;;;;;;;;;;;;;;;8.06;98.15;97806.89;68023;1275;1016453;-76
2023/12/21 01:03:29;;;;;;;;;;;;;;;8.29;96.21;97802.70;68020;1275;1017600;-76
2023/12/21 01:06:36;;;;;;;;;;;;;;;8.22;96.90;97802.51;68000;1275;1016412;-75
2023/12/21 01:09:39;;;;;;;;;;;;;;;8.28;96.65;97801.95;67992;1275;1016881;-75
2023/12/21 01:12:42;;;;;;;;;;;;;;;8.43;94.93;97797.26;68027;1275;1016032;-76
2023/12/21 01:15:44;;;;;;;;;;;;;;;8.39;95.32;97797.21;67970;1275;1016703;-76
2023/12/21 01:18:47;;;;;;;;;;;;;;;8.23;96.90;97791.24;68001;1275;1020054;-76
2023/12/21 01:21:50;;;;;;;;;;;;;;;8.29;96.12;97787.39;68006;1275;1016804;-76
2023/12/21 01:24:52;;;;;;;;;;;;;;;8.33;95.54;97779.81;68042;1275;1016500;-77
2023/12/21 01:27:55;;;;;;;;;;;;;;;8.41;94.46;97778.23;68007;1275;1016151;-75
2023/12/21 01:30:58;;;;;;;;;;;;;;;8.30;94.65;97775.47;68067;1275;1016325;-75
2023/12/21 01:34:01;;;;;;;;;;;;;;;8.34;94.16;97768.77;67989;1275;1016288;-76
2023/12/21 01:37:03;;;;;;;;;;;;;;;8.34;93.62;97757.60;68030;1275;1016094;-75
2023/12/21 01:40:06;;;;;;;;;;;;;;;8.08;96.14;97749.30;68053;1275;1016236;-76
2023/12/21 01:43:09;;;;;;;;;;;;;;;8.17;95.60;97743.98;68019;1275;1016415;-75
2023/12/21 01:46:11;;;;;;;;;;;;;;;7.90;98.13;97743.36;68068;1275;1016257;-76
2023/12/21 01:49:14;;;;;;;;;;;;;;;7.90;98.40;97743.21;68042;1275;1016302;-76
2023/12/21 01:52:16;;;;;;;;;;;;;;;7.90;98.61;97735.19;67993;1275;1016305;-76
2023/12/21 01:55:19;;;;;;;;;;;;;;;7.93;98.71;97732.36;68031;1275;1016310;-76
2023/12/21 01:58:21;;;;;;;;;;;;;;;7.92;99.05;97728.93;68069;1275;1016471;-76
2023/12/21 02:01:24;;;;;;;;;;;;;;;7.97;98.70;97724.97;68075;1275;1016635;-76
2023/12/21 02:04:27;;;;;;;;;;;;;;;7.88;99.02;97717.20;67935;1275;1016379;-76
2023/12/21 02:07:29;;;;;;;;;;;;;;;7.70;100.00;97717.89;68003;1275;1016071;-75
2023/12/21 02:10:32;;;;;;;;;;;;;;;7.79;99.72;97712.58;68056;1275;1018141;-76
2023/12/21 02:13:35;;;;;;;;;;;;;;;7.69;100.00;97706.33;67998;1275;1016171;-76
2023/12/21 02:16:38;;;;;;;;;;;;;;;7.74;100.00;97708.54;68015;1275;1016325;-75
2023/12/21 02:19:40;;;;;;;;;;;;;;;7.94;98.70;97709.84;68042;1275;1016675;-75
2023/12/21 02:22:43;;;;;;;;;;;;;;;8.08;97.57;97703.01;68038;1275;1016448;-76
2023/12/21 02:25:45;;;;;;;;;;;;;;;7.95;98.37;97701.60;68031;1275;1016328;-75
2023/12/21 02:28:48;;;;;;;;;;;;;;;7.88;99.83;97697.03;68057;1275;1017084;-76
2023/12/21 02:31:51;;;;;;;;;;;;;;;7.83;99.98;97687.09;68055;1275;1016286;-76
2023/12/21 02:34:53;;;;;;;;;;;;;;;7.82;100.00;97687.63;67996;1275;1016623;-76
2023/12/21 02:37:56;;;;;;;;;;;;;;;7.73;100.00;97684.25;68030;1275;1016359;-76
2023/12/21 02:40:59;;;;;;;;;;;;;;;7.67;100.00;97680.16;68016;1275;1016451;-75
2023/12/21 02:44:01;;;;;;;;;;;;;;;7.83;100.00;97675.96;67968;1275;1016452;-76
2023/12/21 02:47:04;;;;;;;;;;;;;;;7.87;100.00;97669.45;68047;1275;1016132;-75
2023/12/21 02:50:06;;;;;;;;;;;;;;;7.93;100.00;97660.11;68031;1275;1016561;-76
2023/12/21 02:53:09;;;;;;;;;;;;;;;7.86;100.00;97650.31;68000;1275;1016305;-76
2023/12/21 02:56:12;;;;;;;;;;;;;;;7.85;100.00;97636.17;68030;1275;1016424;-76
2023/12/21 02:59:14;;;;;;;;;;;;;;;7.94;99.99;97627.15;68020;1275;1018690;-75
2023/12/21 03:02:19;;;;;;;;;;;;;;;7.88;100.00;97622.33;67983;1275;1016445;-76
2023/12/21 03:05:22;;;;;;;;;;;;;;;7.87;100.00;97617.70;68024;1275;1016428;-76
2023/12/21 03:08:26;;;;;;;;;;;;;;;7.77;100.00;97612.45;68037;1275;1016382;-76
2023/12/21 03:11:29;;;;;;;;;;;;;;;7.70;100.00;97607.58;68021;1275;1016306;-76
2023/12/21 03:14:31;;;;;;;;;;;;;;;7.73;100.00;97602.29;67988;1275;1016438;-76
2023/12/21 03:17:34;;;;;;;;;;;;;;;7.80;100.00;97591.55;68048;1275;1016205;-76
2023/12/21 03:20:37;;;;;;;;;;;;;;;7.72;100.00;97589.66;68018;1275;1016363;-76
2023/12/21 03:23:40;;;;;;;;;;;;;;;7.78;100.00;97585.98;68008;1275;1016393;-76
2023/12/21 03:26:44;;;;;;;;;;;;;;;7.78;100.00;97580.58;68038;1275;1016342;-76
2023/12/21 03:29:47;;;;;;;;;;;;;;;7.72;100.00;97569.65;68026;1275;1016991;-76
2023/12/21 03:32:51;;;;;;;;;;;;;;;7.63;100.00;97560.73;68015;1275;1016368;-75
2023/12/21 03:35:54;;;;;;;;;;;;;;;7.70;100.00;97554.67;68067;1275;1016387;-75
2023/12/21 03:38:59;;;;;;;;;;;;;;;7.81;100.00;97541.85;68054;1275;1016418;-76
2023/12/21 03:42:02;;;;;;;;;;;;;;;8.05;98.93;97536.95;67989;1274;1016314;-75
2023/12/21 03:45:04;;;;;;;;;;;;;;;8.00;98.58;97530.48;68061;1275;1016030;-75
2023/12/21 03:48:07;;;;;;;;;;;;;;;7.87;99.78;97522.14;68058;1275;1016260;-75
2023/12/21 03:51:09;;;;;;;;;;;;;;;7.73;99.98;97520.70;67994;1275;1016577;-74
2023/12/21 03:54:13;;;;;;;;;;;;;;;7.63;100.00;97515.46;68043;1275;1017069;-75
2023/12/21 03:57:18;;;;;;;;;;;;;;;7.57;100.00;97508.58;68037;1275;1016541;-71
2023/12/21 04:00:20;;;;;;;;;;;;;;;7.66;100.00;97498.56;68075;1275;1016430;-76
2023/12/21 04:03:23;;;;;;;;;;;;;;;7.65;100.00;97496.19;67934;1275;1016468;-75
2023/12/21 04:06:26;;;;;;;;;;;;;;;7.64;100.00;97476.94;67992;1275;1016390;-76
2023/12/21 04:09:28;;;;;;;;;;;;;;;7.89;98.17;97465.77;68053;1275;1016346;-75
2023/12/21 04:12:31;;;;;;;;;;;;;;;7.79;98.35;97468.63;68067;1275;1016471;-75
2023/12/21 04:15:33;;;;;;;;;;;;;;;7.73;98.78;97461.36;68009;1275;1016541;-76
2023/12/21 04:18:36;;;;;;;;;;;;;;;7.56;99.99;97452.98;67975;1275;1016444;-76
2023/12/21 04:21:41;;;;;;;;;;;;;;;7.43;100.00;97438.44;68028;1275;1016177;-75
2023/12/21 04:24:44;;;;;;;;;;;;;;;7.39;100.00;97437.65;67968;1275;1016421;-75
2023/12/21 04:27:46;;;;;;;;;;;;;;;7.39;100.00;97430.53;68019;1275;1018515;-76
2023/12/21 04:30:49;;;;;;;;;;;;;;;7.41;100.00;97427.44;68045;1275;1016133;-76
2023/12/21 04:33:52;;;;;;;;;;;;;;;7.33;100.00;97423.98;68019;1275;1016478;-76
2023/12/21 04:36:55;;;;;;;;;;;;;;;7.24;100.00;97415.06;68022;1275;1016496;-76
2023/12/21 04:39:58;;;;;;;;;;;;;;;7.25;100.00;97413.41;68004;1275;1016461;-75
2023/12/21 04:43:00;;;;;;;;;;;;;;;7.31;100.00;97399.79;67957;1275;1015766;-74
2023/12/21 04:46:03;;;;;;;;;;;;;;;7.49;100.00;97396.09;68015;1275;1016152;-75
2023/12/21 04:49:06;;;;;;;;;;;;;;;7.54;99.99;97387.02;67996;1275;1018365;-76
2023/12/21 04:52:09;;;;;;;;;;;;;;;7.43;100.00;97386.21;68016;1275;1016736;-75
2023/12/21 04:55:12;;;;;;;;;;;;;;;7.49;100.00;97385.69;68010;1275;1016176;-75
2023/12/21 04:58:17;;;;;;;;;;;;;;;7.61;99.86;97379.39;67978;1275;1016151;-75
2023/12/21 05:01:20;;;;;;;;;;;;;;;7.70;99.55;97369.70;68007;1275;1016424;-75
2023/12/21 05:04:23;;;;;;;;;;;;;;;7.80;98.65;97365.16;67980;1275;1016502;-75
2023/12/21 05:07:25;;;;;;;;;;;;;;;7.86;98.23;97362.85;67973;1275;1016763;-76
2023/12/21 05:10:28;;;;;;;;;;;;;;;7.88;97.93;97358.87;67979;1275;1016119;-76
2023/12/21 05:13:31;;;;;;;;;;;;;;;8.02;96.40;97352.77;68006;1275;1016504;-75
2023/12/21 05:19:57;;;;;;;;;;;;;;;7.93;97.70;97341.09;68001;1275;1018078;-74
2023/12/21 05:22:59;;;;;;;;;;;;;;;7.95;97.15;97335.50;68047;1275;1018416;-76
2023/12/21 05:26:02;;;;;;;;;;;;;;;8.04;96.31;97335.77;68068;1275;1016227;-77
2023/12/21 05:29:05;;;;;;;;;;;;;;;8.17;94.85;97332.84;65835;1275;5393593;-76
2023/12/21 05:32:08;;;;;;;;;;;;;;;8.18;94.03;97331.37;68072;1275;1017424;-75
2023/12/21 05:35:19;;;;;;;;;;;;;;;8.20;94.14;97328.59;67920;1275;1018868;-76
2023/12/21 05:38:21;;;;;;;;;;;;;;;8.23;93.26;97318.46;68013;1275;1016424;-76
2023/12/21 05:41:24;;;;;;;;;;;;;;;8.30;92.43;97314.15;68070;1275;1016451;-76
2023/12/21 05:44:26;;;;;;;;;;;;;;;7.96;95.26;97313.15;68032;1275;1016255;-76
2023/12/21 05:47:31;;;;;;;;;;;;;;;8.01;95.56;97311.59;68039;1275;1016436;-76
2023/12/21 05:50:34;;;;;;;;;;;;;;;8.02;95.97;97308.70;68064;1275;1016487;-76
2023/12/21 05:53:37;;;;;;;;;;;;;;;8.05;95.23;97302.05;68025;1275;1016079;-76
2023/12/21 05:56:39;;;;;;;;;;;;;;;8.06;95.41;97311.01;68006;1275;1018564;-76
2023/12/21 05:59:42;;;;;;;;;;;;;;;7.91;96.25;97302.60;68048;1275;1016180;-75
2023/12/21 06:02:44;;;;;;;;;;;;;;;8.01;95.16;97299.71;68026;1275;1016173;-76
2023/12/21 06:05:47;;;;;;;;;;;;;;;8.08;94.65;97293.34;68018;1275;1016356;-75
2023/12/21 06:08:50;;;;;;;;;;;;;;;8.10;94.75;97291.41;68067;1275;1016383;-76
2023/12/21 06:11:52;;;;;;;;;;;;;;;8.12;94.27;97289.68;68027;1275;1016251;-75
2023/12/21 06:14:55;;;;;;;;;;;;;;;8.07;95.01;97289.92;68023;1275;1017757;-76
2023/12/21 06:17:58;;;;;;;;;;;;;;;8.03;95.32;97284.80;68025;1275;1016218;-76
2023/12/21 06:21:00;;;;;;;;;;;;;;;7.98;95.87;97280.63;68048;1275;1016867;-76
2023/12/21 06:24:03;;;;;;;;;;;;;;;7.93;96.03;97267.83;68063;1275;1016281;-76
2023/12/21 06:27:05;;;;;;;;;;;;;;;7.79;97.96;97265.18;67998;1275;1019203;-76
2023/12/21 06:30:18;;;;;;;;;;;;;;;;;;;;;
2023/12/21 06:33:31;;;;;;;;;;;;;;;7.71;99.43;97264.58;68047;1275;1016418;-75
2023/12/21 06:36:33;;;;;;;;;;;;;;;7.73;99.18;97256.20;68020;1275;1016186;-76
2023/12/21 06:39:36;;;;;;;;;;;;;;;7.81;98.12;97252.11;68060;1275;1016044;-77
2023/12/21 06:42:39;;;;;;;;;;;;;;;7.89;97.35;97253.67;68040;1275;1016458;-77
2023/12/21 06:45:41;;;;;;;;;;;;;;;7.87;97.22;97256.09;68021;1275;1016484;-76
2023/12/21 06:48:44;;;;;;;;;;;;;;;7.83;97.94;97254.05;68001;1275;1018582;-76
2023/12/21 06:51:46;;;;;;;;;;;;;;;7.87;97.11;97247.92;68057;1275;1016486;-76
2023/12/21 06:54:49;;;;;;;;;;;;;;;7.93;97.45;97248.78;68044;1275;1016093;-76
2023/12/21 06:57:55;;;;;;;;;;;;;;;7.98;96.92;97247.59;67995;1275;1016296;-77
2023/12/21 07:00:58;;;;;;;;;;;;;;;7.93;98.28;97251.63;68035;1275;1016674;-77
2023/12/21 07:04:02;;;;;;;;;;;;;;;7.86;99.07;97246.92;68010;1275;1016396;-77
2023/12/21 07:07:05;;;;;;;;;;;;;;;7.83;98.56;97238.05;68051;1275;1016451;-78
2023/12/21 07:10:09;;;;;;;;;;;;;;;7.66;99.42;97239.21;68047;1275;1016519;-77
2023/12/21 07:13:11;;;;;;;;;;;;;;;7.50;100.00;97239.30;68036;1275;1018103;-77
2023/12/21 07:16:14;;;;;;;;;;;;;;;7.56;100.00;97237.85;68001;1275;1016388;-76
2023/12/21 07:19:16;;;;;;;;;;;;;;;7.46;100.00;97225.85;68030;1275;1016711;-76
2023/12/21 07:22:19;;;;;;;;;;;;;;;7.37;100.00;97218.34;68018;1275;1016296;-75
2023/12/21 07:25:21;;;;;;;;;;;;;;;7.49;100.00;97231.68;67954;1275;1016836;-76
2023/12/21 07:28:25;;;;;;;;;;;;;;;7.63;100.00;97223.55;67998;1275;1016386;-75
2023/12/21 07:31:28;;;;;;;;;;;;;;;7.68;99.92;97223.33;67998;1275;1016275;-75
2023/12/21 07:34:30;;;;;;;;;;;;;;;7.60;100.00;97214.88;68023;1275;1016452;-76
2023/12/21 07:37:33;;;;;;;;;;;;;;;7.63;100.00;97208.56;67997;1275;1019176;-75
2023/12/21 07:40:36;;;;;;;;;;;;;;;7.74;100.00;97199.45;68025;1275;1017513;-75
2023/12/21 07:43:39;;;;;;;;;;;;;;;7.86;99.65;97205.14;68070;1275;1016237;-74
2023/12/21 07:46:42;;;;;;;;;;;;;;;7.83;99.90;97200.36;68022;1275;1016177;-74
2023/12/21 07:49:45;;;;;;;;;;;;;;;7.77;100.00;97198.71;68004;1275;1016584;-75
2023/12/21 07:52:48;;;;;;;;;;;;;;;7.80;100.00;97185.02;68046;1275;1016293;-76
2023/12/21 07:55:50;;;;;;;;;;;;;;;7.81;100.00;97186.90;68064;1275;1016304;-75
2023/12/21 07:58:54;;;;;;;;;;;;;;;7.92;99.59;97182.79;68052;1275;1016181;-75
2023/12/21 08:01:57;;;;;;;;;;;;;;;7.83;100.00;97178.58;68053;1275;1017299;-75
2023/12/21 08:04:59;;;;;;;;;;;;;;;7.74;100.00;97174.02;68040;1275;1016230;-75
2023/12/21 08:08:02;;;;;;;;;;;;;;;7.48;100.00;97176.16;68016;1275;1016407;-75
2023/12/21 08:11:05;;;;;;;;;;;;;;;7.41;100.00;97173.67;68034;1275;1016451;-75
2023/12/21 08:14:07;;;;;;;;;;;;;;;7.45;100.00;97169.23;68043;1275;1016374;-75
2023/12/21 08:17:10;;;;;;;;;;;;;;;7.54;100.00;97165.95;68022;1275;1016024;-75
2023/12/21 08:20:15;;;;;;;;;;;;;;;7.55;100.00;97151.63;68050;1275;1016306;-75
2023/12/21 08:23:18;;;;;;;;;;;;;;;7.58;100.00;97152.39;68014;1275;1016170;-75
2023/12/21 08:26:21;;;;;;;;;;;;;;;7.63;100.00;97148.73;68055;1275;1016403;-75
2023/12/21 08:29:24;;;;;;;;;;;;;;;7.56;100.00;97140.55;68082;1275;1016024;-74
2023/12/21 08:32:27;;;;;;;;;;;;;;;7.63;100.00;97135.39;67992;1275;1016320;-75
2023/12/21 08:35:30;;;;;;;;;;;;;;;7.53;100.00;97120.13;68087;1275;1017885;-76
2023/12/21 08:38:32;;;;;;;;;;;;;;;7.38;100.00;97124.91;68005;1275;1016678;-74
2023/12/21 08:41:36;;;;;;;;;;;;;;;7.34;100.00;97127.77;68036;1275;1016000;-75
2023/12/21 08:44:38;;;;;;;;;;;;;;;7.33;100.00;97108.24;68004;1275;1016477;-75
2023/12/21 08:47:41;;;;;;;;;;;;;;;7.34;100.00;97107.48;68004;1275;1016280;-76
2023/12/21 08:50:44;;;;;;;;;;;;;;;7.23;100.00;97109.32;68069;1275;1018262;-76
2023/12/21 08:53:47;;;;;;;;;;;;;;;7.33;100.00;97094.64;68030;1275;1016486;-75
2023/12/21 08:56:50;;;;;;;;;;;;;;;7.32;100.00;97089.50;68002;1275;1016454;-71
2023/12/21 08:59:53;;;;;;;;;;;;;;;7.36;100.00;97086.95;67939;1275;1016485;-75
2023/12/21 09:02:56;;;;;;;;;;;;;;;7.39;100.00;97075.28;68084;1275;1018109;-75
2023/12/21 09:05:58;;;;;;;;;;;;;;;7.55;100.00;97070.94;68010;1275;1016429;-75
2023/12/21 09:09:01;;;;;;;;;;;;;;;7.69;100.00;97058.20;67998;1275;1016567;-75
2023/12/21 09:12:04;;;;;;;;;;;;;;;7.69;100.00;97047.77;68020;1275;1018079;-75
2023/12/21 09:15:07;;;;;;;;;;;;;;;7.67;100.00;97044.23;68006;1275;1016177;-76
2023/12/21 09:18:10;;;;;;;;;;;;;;;7.64;100.00;97031.09;68034;1275;1016509;-76
2023/12/21 09:21:13;;;;;;;;;;;;;;;7.59;100.00;97021.19;67988;1275;1016413;-75
2023/12/21 09:24:36;;;;;;;;;;;;;;;7.50;100.00;97017.69;68075;1275;1016179;-75
2023/12/21 09:27:39;;;;;;;;;;;;;;;7.57;100.00;97009.55;68026;1275;1019310;-75
2023/12/21 09:30:41;;;;;;;;;;;;;;;7.67;100.00;97004.73;68032;1275;1018612;-76
2023/12/21 09:33:44;;;;;;;;;;;;;;;7.81;100.00;96996.89;67998;1275;1016446;-75
2023/12/21 09:36:47;;;;;;;;;;;;;;;7.88;100.00;96988.45;68045;1275;1016482;-75
2023/12/21 09:39:50;;;;;;;;;;;;;;;7.85;100.00;96984.22;68023;1275;1016896;-74
2023/12/21 09:42:53;;;;;;;;;;;;;;;7.77;100.00;96965.30;68030;1275;1016281;-74
2023/12/21 09:45:56;;;;;;;;;;;;;;;7.85;100.00;96966.09;68036;1275;1016514;-75
2023/12/21 09:48:58;;;;;;;;;;;;;;;7.91;100.00;96964.48;68030;1275;1016904;-76
2023/12/21 09:52:01;;;;;;;;;;;;;;;8.14;100.00;96957.91;68006;1275;1019286;-76
2023/12/21 09:55:04;;;;;;;;;;;;;;;8.21;100.00;96952.61;68051;1275;1016365;-75
2023/12/21 09:58:07;;;;;;;;;;;;;;;8.33;100.00;96946.92;68021;1275;1018713;-75
2023/12/21 10:01:09;;;;;;;;;;;;;;;8.42;100.00;96941.37;67960;1275;1016471;-75
2023/12/21 10:04:12;;;;;;;;;;;;;;;8.13;100.00;96937.27;68031;1275;1016487;-75
2023/12/21 10:07:14;;;;;;;;;;;;;;;7.99;100.00;96926.88;68035;1275;1016162;-75
2023/12/21 10:10:18;;;;;;;;;;;;;;;7.88;100.00;96920.30;67994;1275;1016347;-75
2023/12/21 10:13:20;;;;;;;;;;;;;;;7.90;100.00;96917.85;68034;1275;1016838;-74
2023/12/21 10:16:23;;;;;;;;;;;;;;;8.15;100.00;96910.50;68005;1275;1016531;-74
2023/12/21 10:19:26;;;;;;;;;;;;;;;8.25;100.00;96902.52;68039;1275;1016461;-75
2023/12/21 10:22:28;;;;;;;;;;;;;;;8.23;100.00;96894.31;68042;1275;1016433;-75
2023/12/21 10:25:31;;;;;;;;;;;;;;;8.37;100.00;96884.64;68018;1275;1016179;-75
2023/12/21 10:28:33;;;;;;;;;;;;;;;8.45;100.00;96882.40;68018;1275;1016275;-74
2023/12/21 10:31:36;;;;;;;;;;;;;;;8.39;100.00;96879.08;68036;1275;1016433;-75
2023/12/21 10:34:38;;;;;;;;;;;;;;;8.35;100.00;96865.60;68034;1275;1016509;-75
2023/12/21 10:37:42;;;;;;;;;;;;;;;8.50;100.00;96846.67;68026;1275;1016314;-75
2023/12/21 10:40:44;;;;;;;;;;;;;;;8.67;100.00;96829.89;68082;1275;1017177;-75
2023/12/21 10:43:47;;;;;;;;;;;;;;;8.85;99.86;96825.24;68026;1275;1015893;-75
2023/12/21 10:46:49;;;;;;;;;;;;;;;8.63;100.00;96816.80;68020;1275;1016418;-75
2023/12/21 10:49:52;;;;;;;;;;;;;;;8.81;99.66;96806.20;68049;1275;1016490;-75
2023/12/21 10:52:55;;;;;;;;;;;;;;;8.74;99.93;96794.33;68049;1275;1016501;-76
2023/12/21 10:55:58;;;;;;;;;;;;;;;8.49;100.00;96789.96;68082;1275;1016453;-76
2023/12/21 10:59:02;;;;;;;;;;;;;;;8.85;99.84;96773.84;68026;1275;1016166;-76
2023/12/21 11:02:04;;;;;;;;;;;;;;;8.92;99.75;96771.79;68067;1275;1016119;-75
2023/12/21 11:05:07;;;;;;;;;;;;;;;8.70;99.81;96763.58;68019;1275;1016322;-75
2023/12/21 11:08:09;;;;;;;;;;;;;;;8.66;100.00;96761.48;68038;1275;1016196;-75
2023/12/21 11:11:12;;;;;;;;;;;;;;;8.75;99.98;96743.15;68053;1275;1016580;-74
2023/12/21 11:14:17;;;;;;;;;;;;;;;8.81;99.51;96745.40;68073;1275;1019493;-75
2023/12/21 11:17:20;;;;;;;;;;;;;;;8.89;97.85;96731.16;68029;1275;1015637;-75
2023/12/21 11:20:22;;;;;;;;;;;;;;;8.82;98.15;96726.44;68062;1275;1016388;-75
2023/12/21 11:23:25;;;;;;;;;;;;;;;8.74;99.22;96720.78;68074;1275;1016392;-75
2023/12/21 11:26:29;;;;;;;;;;;;;;;8.85;99.40;96714.02;68012;1275;1018277;-74
2023/12/21 11:29:33;;;;;;;;;;;;;;;8.91;98.37;96699.55;68036;1275;1018552;-76
2023/12/21 11:32:37;;;;;;;;;;;;;;;8.97;98.42;96696.80;68017;1275;1016217;-75
2023/12/21 11:35:40;;;;;;;;;;;;;;;8.93;97.66;96679.52;68018;1275;1016196;-75
2023/12/21 11:38:45;;;;;;;;;;;;;;;8.99;96.64;96679.15;68081;1275;1016110;-75
2023/12/21 11:41:50;;;;;;;;;;;;;;;8.94;96.58;96668.76;68009;1275;1016406;-75
2023/12/21 11:44:54;;;;;;;;;;;;;;;8.73;98.20;96659.67;68036;1275;1016787;-75
2023/12/21 11:47:59;;;;;;;;;;;;;;;8.69;100.00;96657.23;68040;1275;1016205;-75
2023/12/21 11:51:01;;;;;;;;;;;;;;;8.74;100.00;96646.52;68046;1275;1016714;-74
2023/12/21 11:54:04;;;;;;;;;;;;;;;8.80;98.84;96637.13;68024;1275;1016316;-74
2023/12/21 11:57:07;;;;;;;;;;;;;;;8.71;99.36;96626.77;68057;1275;1016412;-75
2023/12/21 12:00:09;;;;;;;;;;;;;;;8.66;99.76;96623.18;68042;1275;1016462;-75
2023/12/21 12:03:12;;;;;;;;;;;;;;;8.64;99.98;96615.14;68017;1275;1016425;-76
2023/12/21 12:06:15;;;;;;;;;;;;;;;8.70;99.73;96605.20;68031;1275;1016342;-74
2023/12/21 12:09:19;;;;;;;;;;;;;;;8.66;98.90;96598.02;68051;1275;1016323;-74
2023/12/21 12:12:24;;;;;;;;;;;;;;;8.67;99.06;96592.75;68027;1275;1016455;-75
2023/12/21 12:15:26;;;;;;;;;;;;;;;8.69;99.03;96592.08;68025;1275;1016403;-75
2023/12/21 12:18:30;;;;;;;;;;;;;;;8.70;98.92;96586.27;68053;1275;1016456;-74
2023/12/21 12:21:33;;;;;;;;;;;;;;;8.67;97.63;96566.30;67982;1275;1016363;-76
2023/12/21 12:24:35;;;;;;;;;;;;;;;8.77;97.54;96566.06;68044;1275;1016323;-75
2023/12/21 12:27:38;;;;;;;;;;;;;;;8.87;96.42;96553.36;67982;1275;1015604;-75
2023/12/21 12:30:40;;;;;;;;;;;;;;;8.85;96.97;96546.37;68003;1275;1016451;-76
2023/12/21 12:33:43;;;;;;;;;;;;;;;8.83;97.71;96537.82;67984;1275;1015750;-75
2023/12/21 12:36:45;;;;;;;;;;;;;;;8.76;98.39;96526.59;68024;1275;1016243;-74
2023/12/21 12:39:48;;;;;;;;;;;;;;;8.78;98.37;96514.24;68017;1275;1016133;-75
2023/12/21 12:42:51;;;;;;;;;;;;;;;8.66;98.49;96506.05;68015;1275;1016518;-75
2023/12/21 12:46:04;;;;;;;;;;;;;;;;;;;;;
2023/12/21 12:49:17;;;;;;;;;;;;;;;8.56;99.10;96495.68;68009;1275;1016005;-75
2023/12/21 12:52:21;;;;;;;;;;;;;;;8.50;100.00;96488.92;68006;1275;1016482;-74
2023/12/21 12:55:25;;;;;;;;;;;;;;;8.52;100.00;96480.20;68051;1275;1016375;-75
2023/12/21 12:58:34;;;;;;;;;;;;;;;8.52;100.00;96471.64;68034;1275;1016201;-75
2023/12/21 13:01:37;;;;;;;;;;;;;;;8.55;99.90;96464.55;68009;1275;1016464;-74
2023/12/21 13:04:40;;;;;;;;;;;;;;;8.56;99.76;96456.84;68048;1275;1016407;-74
2023/12/21 13:07:43;;;;;;;;;;;;;;;8.46;100.00;96455.41;68021;1275;1016177;-76
2023/12/21 13:10:45;;;;;;;;;;;;;;;8.48;100.00;96446.76;67981;1275;1017603;-76
2023/12/21 13:13:48;;;;;;;;;;;;;;;8.54;99.95;96442.38;68008;1275;1016426;-75
2023/12/21 13:16:50;;;;;;;;;;;;;;;8.44;100.00;96438.58;68043;1275;1016459;-76
2023/12/21 13:19:53;;;;;;;;;;;;;;;8.40;100.00;96429.13;67984;1275;1016482;-75
2023/12/21 13:22:55;;;;;;;;;;;;;;;8.30;100.00;96423.76;67983;1275;1016392;-74
2023/12/21 13:25:58;;;;;;;;;;;;;;;8.28;100.00;96408.77;68006;1275;1016292;-75
2023/12/21 13:29:01;;;;;;;;;;;;;;;8.13;100.00;96410.14;68032;1275;1019579;-75
2023/12/21 13:32:03;;;;;;;;;;;;;;;8.08;100.00;96396.80;68002;1275;1016477;-76
2023/12/21 13:35:06;;;;;;;;;;;;;;;8.00;100.00;96388.65;67975;1275;1016364;-76
2023/12/21 13:38:08;;;;;;;;;;;;;;;7.99;100.00;96374.12;68039;1275;1016410;-76
2023/12/21 13:41:11;;;;;;;;;;;;;;;7.99;100.00;96369.27;68028;1275;1016208;-76
2023/12/21 13:44:13;;;;;;;;;;;;;;;7.91;100.00;96362.63;68029;1275;1016410;-74
2023/12/21 13:47:17;;;;;;;;;;;;;;;7.95;100.00;96358.63;68001;1275;1016484;-76
2023/12/21 13:50:20;;;;;;;;;;;;;;;7.97;100.00;96339.50;67968;1275;1016059;-75
2023/12/21 13:53:23;;;;;;;;;;;;;;;8.05;100.00;96327.63;68064;1275;1018636;-75
2023/12/21 13:56:25;;;;;;;;;;;;;;;8.23;100.00;96317.83;68026;1275;1016460;-74
2023/12/21 13:59:28;;;;;;;;;;;;;;;8.43;99.93;96310.97;68013;1275;1016215;-76
2023/12/21 14:02:31;;;;;;;;;;;;;;;8.53;99.12;96297.05;67999;1275;1018669;-75
2023/12/21 14:05:33;;;;;;;;;;;;;;;8.43;99.91;96290.97;68048;1275;1016553;-75
2023/12/21 14:08:36;;;;;;;;;;;;;;;8.40;99.86;96277.32;68032;1275;1016699;-76
2023/12/21 14:11:38;;;;;;;;;;;;;;;8.52;99.21;96270.29;67991;1275;1017030;-76
2023/12/21 14:14:41;;;;;;;;;;;;;;;8.55;98.91;96259.02;68051;1275;1016375;-77
2023/12/21 14:17:44;;;;;;;;;;;;;;;8.47;99.17;96242.48;68040;1275;1016468;-77
2023/12/21 14:20:51;;;;;;;;;;;;;;;8.31;100.00;96246.30;68002;1275;1016452;-75
2023/12/21 14:23:53;;;;;;;;;;;;;;;8.26;100.00;96237.34;68061;1275;1017135;-76
2023/12/21 14:26:56;;;;;;;;;;;;;;;8.24;100.00;96230.73;68004;1275;1016295;-76
2023/12/21 14:29:59;;;;;;;;;;;;;;;8.30;100.00;96213.11;68015;1275;1016496;-77
2023/12/21 14:33:02;;;;;;;;;;;;;;;8.25;100.00;96199.83;68029;1275;1016475;-76
2023/12/21 14:36:04;;;;;;;;;;;;;;;8.28;100.00;96198.64;68033;1275;1016815;-77
2023/12/21 14:39:07;;;;;;;;;;;;;;;8.36;100.00;96188.00;68000;1275;1016432;-76
2023/12/21 14:42:10;;;;;;;;;;;;;;;8.20;100.00;96180.24;68067;1275;1016180;-76
2023/12/21 14:45:12;;;;;;;;;;;;;;;8.18;100.00;96177.13;68011;1275;1016159;-77
2023/12/21 14:48:16;;;;;;;;;;;;;;;8.13;100.00;96164.33;68009;1275;1016458;-77
2023/12/21 14:51:20;;;;;;;;;;;;;;;8.13;100.00;96153.89;68041;1275;1017615;-77
2023/12/21 14:54:23;;;;;;;;;;;;;;;7.98;100.00;96142.95;68010;1275;1016284;-77
2023/12/21 14:57:26;;;;;;;;;;;;;;;7.81;100.00;96125.25;68017;1275;1016415;-77
2023/12/21 15:00:28;;;;;;;;;;;;;;;7.76;100.00;96118.52;68022;1275;1016587;-75
2023/12/21 15:03:31;;;;;;;;;;;;;;;7.80;100.00;96111.20;67948;1275;1016381;-77
2023/12/21 15:06:33;;;;;;;;;;;;;;;7.87;100.00;96108.23;68065;1275;1018596;-77
2023/12/21 15:09:36;;;;;;;;;;;;;;;7.86;100.00;96096.92;68073;1275;1018755;-76
2023/12/21 15:12:38;;;;;;;;;;;;;;;7.83;100.00;96088.64;67998;1275;1016291;-76
2023/12/21 15:15:41;;;;;;;;;;;;;;;7.85;100.00;96082.76;68025;1275;1016316;-77
2023/12/21 15:18:44;;;;;;;;;;;;;;;7.77;100.00;96081.23;68050;1275;1016453;-76
2023/12/21 15:21:47;;;;;;;;;;;;;;;7.73;100.00;96062.80;68041;1275;1016291;-76
2023/12/21 15:24:49;;;;;;;;;;;;;;;7.70;100.00;96059.38;68010;1275;1015870;-75
2023/12/21 15:27:52;;;;;;;;;;;;;;;7.72;100.00;96054.05;68049;1275;1016362;-75
2023/12/21 15:30:55;;;;;;;;;;;;;;;7.76;100.00;96048.63;68034;1275;1016112;-76
2023/12/21 15:33:57;;;;;;;;;;;;;;;7.62;100.00;96034.56;67983;1275;1016214;-75
2023/12/21 15:37:00;;;;;;;;;;;;;;;7.59;100.00;96027.23;68049;1275;1016836;-76
2023/12/21 15:40:04;;;;;;;;;;;;;;;7.64;100.00;96020.63;68013;1275;1018863;-77